sensor_id;sensor_type;location;lat;lon;timestamp;P1;durP1;ratioP1;P2;durP2;ratioP2
8675;SDS011;4375;52.486;13.424;2023-12-20T00:00:57;16.70;;;4.60;;
8675;SDS011;4375;52.486;13.424;2023-12-20T00:03:23;16.00;;;4.37;;
8675;SDS011;4375;52.486;13.424;2023-12-20T00:05:49;15.97;;;4.23;;
8675;SDS011;4375;52.486;13.424;2023-12-20T00:08:15;16.00;;;3.90;;
8675;SDS011;4375;52.486;13.424;2023-12-20T00:10:41;15.17;;;3.93;;
8675;SDS011;4375;52.486;13.424;2023-12-20T00:13:06;16.00;;;4.40;;
8675;SDS011;4375;52.486;13.424;2023-12-20T00:15:33;16.30;;;4.20;;
8675;SDS011;4375;52.486;13.424;2023-12-20T00:17:59;17.40;;;4.20;;
8675;SDS011;4375;52.486;13.424;2023-12-20T00:20:25;16.07;;;4.00;;
8675;SDS011;4375;52.486;13.424;2023-12-20T00:22:51;16.30;;;4.37;;
8675;SDS011;4375;52.486;13.424;2023-12-20T00:25:18;15.13;;;3.50;;
8675;SDS011;4375;52.486;13.424;2023-12-20T00:27:44;15.27;;;3.53;;
8675;SDS011;4375;52.486;13.424;2023-12-20T00:30:10;16.60;;;4.00;;
8675;SDS011;4375;52.486;13.424;2023-12-20T00:32:36;15.67;;;3.90;;
8675;SDS011;4375;52.486;13.424;2023-12-20T00:35:02;15.90;;;3.97;;
8675;SDS011;4375;52.486;13.424;2023-12-20T00:37:28;15.90;;;4.17;;
8675;SDS011;4375;52.486;13.424;2023-12-20T00:39:53;16.20;;;3.87;;
8675;SDS011;4375;52.486;13.424;2023-12-20T00:42:19;15.63;;;3.70;;
8675;SDS011;4375;52.486;13.424;2023-12-20T00:44:44;16.37;;;3.73;;
8675;SDS011;4375;52.486;13.424;2023-12-20T00:47:10;15.60;;;3.77;;
8675;SDS011;4375;52.486;13.424;2023-12-20T00:49:36;15.27;;;3.17;;
8675;SDS011;4375;52.486;13.424;2023-12-20T00:52:02;15.60;;;4.13;;
8675;SDS011;4375;52.486;13.424;2023-12-20T00:54:27;15.67;;;3.67;;
8675;SDS011;4375;52.486;13.424;2023-12-20T00:56:54;14.80;;;3.47;;
8675;SDS011;4375;52.486;13.424;2023-12-20T00:59:20;15.07;;;3.23;;
8675;SDS011;4375;52.486;13.424;2023-12-20T01:01:45;15.87;;;3.60;;
8675;SDS011;4375;52.486;13.424;2023-12-20T01:04:11;16.37;;;3.97;;
8675;SDS011;4375;52.486;13.424;2023-12-20T01:06:36;15.60;;;3.53;;
8675;SDS011;4375;52.486;13.424;2023-12-20T01:09:02;15.27;;;3.60;;
8675;SDS011;4375;52.486;13.424;2023-12-20T01:11:28;14.93;;;3.33;;
8675;SDS011;4375;52.486;13.424;2023-12-20T01:13:54;15.47;;;3.80;;
8675;SDS011;4375;52.486;13.424;2023-12-20T01:16:20;16.00;;;3.63;;
8675;SDS011;4375;52.486;13.424;2023-12-20T01:18:45;15.43;;;3.93;;
8675;SDS011;4375;52.486;13.424;2023-12-20T01:21:11;17.23;;;3.73;;
8675;SDS011;4375;52.486;13.424;2023-12-20T01:23:37;16.00;;;3.60;;
8675;SDS011;4375;52.486;13.424;2023-12-20T01:26:03;15.33;;;3.63;;
8675;SDS011;4375;52.486;13.424;2023-12-20T01:28:30;15.80;;;3.67;;
8675;SDS011;4375;52.486;13.424;2023-12-20T01:30:56;15.67;;;3.63;;
8675;SDS011;4375;52.486;13.424;2023-12-20T01:33:22;15.07;;;3.47;;
8675;SDS011;4375;52.486;13.424;2023-12-20T01:35:48;16.00;;;4.10;;
8675;SDS011;4375;52.486;13.424;2023-12-20T01:38:14;16.80;;;3.90;;
8675;SDS011;4375;52.486;13.424;2023-12-20T01:40:39;14.97;;;3.50;;
8675;SDS011;4375;52.486;13.424;2023-12-20T01:43:08;15.27;;;3.40;;
8675;SDS011;4375;52.486;13.424;2023-12-20T01:45:34;14.93;;;3.20;;
8675;SDS011;4375;52.486;13.424;2023-12-20T01:48:00;15.60;;;3.10;;
8675;SDS011;4375;52.486;13.424;2023-12-20T01:50:27;15.40;;;3.40;;
8675;SDS011;4375;52.486;13.424;2023-12-20T01:52:54;14.90;;;2.90;;
8675;SDS011;4375;52.486;13.424;2023-12-20T01:55:23;14.40;;;2.87;;
8675;SDS011;4375;52.486;13.424;2023-12-20T01:57:49;15.10;;;3.37;;
8675;SDS011;4375;52.486;13.424;2023-12-20T02:00:16;16.13;;;3.40;;
8675;SDS011;4375;52.486;13.424;2023-12-20T02:02:43;16.20;;;3.67;;
8675;SDS011;4375;52.486;13.424;2023-12-20T02:05:10;15.50;;;3.37;;
8675;SDS011;4375;52.486;13.424;2023-12-20T02:07:36;14.70;;;2.97;;
8675;SDS011;4375;52.486;13.424;2023-12-20T02:10:02;14.70;;;3.23;;
8675;SDS011;4375;52.486;13.424;2023-12-20T02:12:29;14.77;;;3.20;;
8675;SDS011;4375;52.486;13.424;2023-12-20T02:14:55;14.40;;;2.93;;
8675;SDS011;4375;52.486;13.424;2023-12-20T02:17:20;15.57;;;3.60;;
8675;SDS011;4375;52.486;13.424;2023-12-20T02:19:47;15.70;;;3.63;;
8675;SDS011;4375;52.486;13.424;2023-12-20T02:22:13;15.60;;;3.30;;
8675;SDS011;4375;52.486;13.424;2023-12-20T02:24:39;15.70;;;3.33;;
8675;SDS011;4375;52.486;13.424;2023-12-20T02:27:08;15.70;;;3.80;;
8675;SDS011;4375;52.486;13.424;2023-12-20T02:29:34;15.60;;;3.53;;
8675;SDS011;4375;52.486;13.424;2023-12-20T02:32:00;14.80;;;3.43;;
8675;SDS011;4375;52.486;13.424;2023-12-20T02:34:26;16.00;;;3.50;;
8675;SDS011;4375;52.486;13.424;2023-12-20T02:36:51;15.27;;;3.53;;
8675;SDS011;4375;52.486;13.424;2023-12-20T02:39:17;16.70;;;3.27;;
8675;SDS011;4375;52.486;13.424;2023-12-20T02:41:44;15.27;;;3.30;;
8675;SDS011;4375;52.486;13.424;2023-12-20T02:44:09;17.00;;;3.70;;
8675;SDS011;4375;52.486;13.424;2023-12-20T02:46:35;14.40;;;2.93;;
8675;SDS011;4375;52.486;13.424;2023-12-20T02:49:01;14.83;;;3.47;;
8675;SDS011;4375;52.486;13.424;2023-12-20T02:51:26;15.60;;;3.60;;
8675;SDS011;4375;52.486;13.424;2023-12-20T02:53:52;15.43;;;3.60;;
8675;SDS011;4375;52.486;13.424;2023-12-20T02:56:17;15.90;;;3.90;;
8675;SDS011;4375;52.486;13.424;2023-12-20T02:58:43;15.80;;;3.83;;
8675;SDS011;4375;52.486;13.424;2023-12-20T03:01:08;18.50;;;4.40;;
8675;SDS011;4375;52.486;13.424;2023-12-20T03:03:34;15.50;;;4.17;;
8675;SDS011;4375;52.486;13.424;2023-12-20T03:06:00;16.57;;;4.50;;
8675;SDS011;4375;52.486;13.424;2023-12-20T03:08:25;18.50;;;4.83;;
8675;SDS011;4375;52.486;13.424;2023-12-20T03:10:51;21.90;;;4.60;;
8675;SDS011;4375;52.486;13.424;2023-12-20T03:13:18;17.40;;;4.10;;
8675;SDS011;4375;52.486;13.424;2023-12-20T03:15:44;18.00;;;4.63;;
8675;SDS011;4375;52.486;13.424;2023-12-20T03:18:10;19.00;;;5.20;;
8675;SDS011;4375;52.486;13.424;2023-12-20T03:20:36;20.07;;;5.17;;
8675;SDS011;4375;52.486;13.424;2023-12-20T03:23:01;17.30;;;4.60;;
8675;SDS011;4375;52.486;13.424;2023-12-20T03:25:28;17.23;;;4.17;;
8675;SDS011;4375;52.486;13.424;2023-12-20T03:27:53;17.33;;;4.40;;
8675;SDS011;4375;52.486;13.424;2023-12-20T03:30:19;18.20;;;4.80;;
8675;SDS011;4375;52.486;13.424;2023-12-20T03:32:45;18.83;;;4.13;;
8675;SDS011;4375;52.486;13.424;2023-12-20T03:35:11;17.13;;;4.07;;
8675;SDS011;4375;52.486;13.424;2023-12-20T03:37:37;18.13;;;4.17;;
8675;SDS011;4375;52.486;13.424;2023-12-20T03:40:03;16.43;;;3.93;;
8675;SDS011;4375;52.486;13.424;2023-12-20T03:42:29;16.30;;;3.20;;
8675;SDS011;4375;52.486;13.424;2023-12-20T03:44:54;23.40;;;3.60;;
8675;SDS011;4375;52.486;13.424;2023-12-20T03:47:20;18.23;;;3.27;;
8675;SDS011;4375;52.486;13.424;2023-12-20T03:49:45;24.47;;;4.20;;
8675;SDS011;4375;52.486;13.424;2023-12-20T03:52:11;16.97;;;3.80;;
8675;SDS011;4375;52.486;13.424;2023-12-20T03:54:37;16.17;;;3.30;;
8675;SDS011;4375;52.486;13.424;2023-12-20T03:57:03;16.10;;;2.87;;
8675;SDS011;4375;52.486;13.424;2023-12-20T03:59:29;16.57;;;2.83;;
8675;SDS011;4375;52.486;13.424;2023-12-20T04:01:59;25.47;;;3.13;;
8675;SDS011;4375;52.486;13.424;2023-12-20T04:04:25;19.77;;;2.33;;
8675;SDS011;4375;52.486;13.424;2023-12-20T04:06:50;16.53;;;2.77;;
8675;SDS011;4375;52.486;13.424;2023-12-20T04:09:16;18.50;;;2.80;;
8675;SDS011;4375;52.486;13.424;2023-12-20T04:11:42;25.00;;;2.80;;
8675;SDS011;4375;52.486;13.424;2023-12-20T04:14:07;16.40;;;2.70;;
8675;SDS011;4375;52.486;13.424;2023-12-20T04:16:33;23.83;;;2.60;;
8675;SDS011;4375;52.486;13.424;2023-12-20T04:18:59;15.83;;;1.97;;
8675;SDS011;4375;52.486;13.424;2023-12-20T04:21:25;15.50;;;2.30;;
8675;SDS011;4375;52.486;13.424;2023-12-20T04:23:50;17.53;;;2.57;;
8675;SDS011;4375;52.486;13.424;2023-12-20T04:26:16;22.13;;;2.13;;
8675;SDS011;4375;52.486;13.424;2023-12-20T04:28:42;17.00;;;2.83;;
8675;SDS011;4375;52.486;13.424;2023-12-20T04:31:08;17.37;;;2.27;;
8675;SDS011;4375;52.486;13.424;2023-12-20T04:33:33;21.10;;;2.77;;
8675;SDS011;4375;52.486;13.424;2023-12-20T04:35:59;17.43;;;2.30;;
8675;SDS011;4375;52.486;13.424;2023-12-20T04:38:25;25.40;;;2.30;;
8675;SDS011;4375;52.486;13.424;2023-12-20T04:40:51;20.63;;;2.83;;
8675;SDS011;4375;52.486;13.424;2023-12-20T04:43:17;16.80;;;2.20;;
8675;SDS011;4375;52.486;13.424;2023-12-20T04:45:42;17.40;;;2.80;;
8675;SDS011;4375;52.486;13.424;2023-12-20T04:48:08;19.93;;;2.53;;
8675;SDS011;4375;52.486;13.424;2023-12-20T04:50:34;19.90;;;2.07;;
8675;SDS011;4375;52.486;13.424;2023-12-20T04:52:59;19.80;;;2.70;;
8675;SDS011;4375;52.486;13.424;2023-12-20T04:55:25;22.00;;;2.70;;
8675;SDS011;4375;52.486;13.424;2023-12-20T04:57:51;17.47;;;2.17;;
8675;SDS011;4375;52.486;13.424;2023-12-20T05:00:17;17.47;;;2.80;;
8675;SDS011;4375;52.486;13.424;2023-12-20T05:02:42;21.67;;;2.67;;
8675;SDS011;4375;52.486;13.424;2023-12-20T05:05:08;17.27;;;2.20;;
8675;SDS011;4375;52.486;13.424;2023-12-20T05:07:34;19.83;;;2.20;;
8675;SDS011;4375;52.486;13.424;2023-12-20T05:09:59;19.90;;;2.20;;
8675;SDS011;4375;52.486;13.424;2023-12-20T05:12:25;15.40;;;2.37;;
8675;SDS011;4375;52.486;13.424;2023-12-20T05:14:51;16.00;;;2.37;;
8675;SDS011;4375;52.486;13.424;2023-12-20T05:17:17;16.70;;;2.77;;
8675;SDS011;4375;52.486;13.424;2023-12-20T05:19:45;40.87;;;10.13;;
8675;SDS011;4375;52.486;13.424;2023-12-20T05:22:11;22.93;;;3.40;;
8675;SDS011;4375;52.486;13.424;2023-12-20T05:24:36;18.60;;;2.57;;
8675;SDS011;4375;52.486;13.424;2023-12-20T05:27:02;21.77;;;2.50;;
8675;SDS011;4375;52.486;13.424;2023-12-20T05:29:28;18.70;;;3.10;;
8675;SDS011;4375;52.486;13.424;2023-12-20T05:31:53;17.70;;;3.30;;
8675;SDS011;4375;52.486;13.424;2023-12-20T05:34:19;16.90;;;2.33;;
8675;SDS011;4375;52.486;13.424;2023-12-20T05:36:45;22.90;;;2.73;;
8675;SDS011;4375;52.486;13.424;2023-12-20T05:39:11;18.97;;;2.30;;
8675;SDS011;4375;52.486;13.424;2023-12-20T05:41:37;22.13;;;2.87;;
8675;SDS011;4375;52.486;13.424;2023-12-20T05:44:02;25.00;;;5.20;;
8675;SDS011;4375;52.486;13.424;2023-12-20T05:46:28;27.77;;;4.57;;
8675;SDS011;4375;52.486;13.424;2023-12-20T05:48:53;33.73;;;8.83;;
8675;SDS011;4375;52.486;13.424;2023-12-20T05:51:19;20.00;;;2.53;;
8675;SDS011;4375;52.486;13.424;2023-12-20T05:53:45;21.30;;;2.50;;
8675;SDS011;4375;52.486;13.424;2023-12-20T05:56:10;21.43;;;2.43;;
8675;SDS011;4375;52.486;13.424;2023-12-20T05:58:37;16.50;;;2.80;;
8675;SDS011;4375;52.486;13.424;2023-12-20T06:01:04;15.10;;;1.77;;
8675;SDS011;4375;52.486;13.424;2023-12-20T06:03:30;17.73;;;2.00;;
8675;SDS011;4375;52.486;13.424;2023-12-20T06:05:56;20.63;;;2.30;;
8675;SDS011;4375;52.486;13.424;2023-12-20T06:08:21;19.40;;;2.43;;
8675;SDS011;4375;52.486;13.424;2023-12-20T06:10:48;17.60;;;2.60;;
8675;SDS011;4375;52.486;13.424;2023-12-20T06:13:14;16.30;;;1.83;;
8675;SDS011;4375;52.486;13.424;2023-12-20T06:15:39;19.07;;;2.50;;
8675;SDS011;4375;52.486;13.424;2023-12-20T06:18:05;27.70;;;3.60;;
8675;SDS011;4375;52.486;13.424;2023-12-20T06:20:32;20.10;;;2.10;;
8675;SDS011;4375;52.486;13.424;2023-12-20T06:22:57;17.33;;;2.20;;
8675;SDS011;4375;52.486;13.424;2023-12-20T06:25:23;18.50;;;2.40;;
8675;SDS011;4375;52.486;13.424;2023-12-20T06:27:49;18.43;;;2.00;;
8675;SDS011;4375;52.486;13.424;2023-12-20T06:30:15;25.07;;;3.10;;
8675;SDS011;4375;52.486;13.424;2023-12-20T06:32:41;20.07;;;2.70;;
8675;SDS011;4375;52.486;13.424;2023-12-20T06:35:08;20.30;;;2.90;;
8675;SDS011;4375;52.486;13.424;2023-12-20T06:37:34;16.67;;;2.20;;
8675;SDS011;4375;52.486;13.424;2023-12-20T06:40:00;16.70;;;2.40;;
8675;SDS011;4375;52.486;13.424;2023-12-20T06:42:26;19.83;;;3.13;;
8675;SDS011;4375;52.486;13.424;2023-12-20T06:44:52;20.53;;;2.80;;
8675;SDS011;4375;52.486;13.424;2023-12-20T06:47:17;22.60;;;2.83;;
8675;SDS011;4375;52.486;13.424;2023-12-20T06:49:43;15.23;;;2.30;;
8675;SDS011;4375;52.486;13.424;2023-12-20T06:52:09;21.33;;;2.40;;
8675;SDS011;4375;52.486;13.424;2023-12-20T06:54:35;19.67;;;2.47;;
8675;SDS011;4375;52.486;13.424;2023-12-20T06:57:01;17.30;;;2.90;;
8675;SDS011;4375;52.486;13.424;2023-12-20T06:59:28;20.50;;;2.63;;
8675;SDS011;4375;52.486;13.424;2023-12-20T07:01:54;17.60;;;2.57;;
8675;SDS011;4375;52.486;13.424;2023-12-20T07:04:19;17.57;;;2.77;;
8675;SDS011;4375;52.486;13.424;2023-12-20T07:06:47;18.77;;;2.70;;
8675;SDS011;4375;52.486;13.424;2023-12-20T07:09:13;16.30;;;2.30;;
8675;SDS011;4375;52.486;13.424;2023-12-20T07:11:39;18.23;;;2.30;;
8675;SDS011;4375;52.486;13.424;2023-12-20T07:14:05;20.83;;;2.50;;
8675;SDS011;4375;52.486;13.424;2023-12-20T07:16:30;18.87;;;2.40;;
8675;SDS011;4375;52.486;13.424;2023-12-20T07:18:56;20.37;;;2.40;;
8675;SDS011;4375;52.486;13.424;2023-12-20T07:21:22;19.03;;;2.60;;
8675;SDS011;4375;52.486;13.424;2023-12-20T07:23:48;18.40;;;2.57;;
8675;SDS011;4375;52.486;13.424;2023-12-20T07:26:14;16.50;;;2.30;;
8675;SDS011;4375;52.486;13.424;2023-12-20T07:28:40;18.10;;;2.60;;
8675;SDS011;4375;52.486;13.424;2023-12-20T07:31:06;18.83;;;2.73;;
8675;SDS011;4375;52.486;13.424;2023-12-20T07:33:31;26.73;;;2.77;;
8675;SDS011;4375;52.486;13.424;2023-12-20T07:35:58;20.27;;;2.67;;
8675;SDS011;4375;52.486;13.424;2023-12-20T07:38:24;16.30;;;2.70;;
8675;SDS011;4375;52.486;13.424;2023-12-20T07:40:50;16.90;;;2.30;;
8675;SDS011;4375;52.486;13.424;2023-12-20T07:43:16;23.37;;;2.73;;
8675;SDS011;4375;52.486;13.424;2023-12-20T07:45:41;17.93;;;2.60;;
8675;SDS011;4375;52.486;13.424;2023-12-20T07:48:07;17.40;;;2.60;;
8675;SDS011;4375;52.486;13.424;2023-12-20T07:50:33;16.30;;;2.30;;
8675;SDS011;4375;52.486;13.424;2023-12-20T07:52:59;21.57;;;2.40;;
8675;SDS011;4375;52.486;13.424;2023-12-20T07:55:26;18.10;;;2.50;;
8675;SDS011;4375;52.486;13.424;2023-12-20T07:57:52;22.77;;;5.00;;
8675;SDS011;4375;52.486;13.424;2023-12-20T08:00:17;20.17;;;2.07;;
8675;SDS011;4375;52.486;13.424;2023-12-20T08:02:43;22.13;;;2.73;;
8675;SDS011;4375;52.486;13.424;2023-12-20T08:05:09;18.30;;;2.30;;
8675;SDS011;4375;52.486;13.424;2023-12-20T08:07:35;18.77;;;2.40;;
8675;SDS011;4375;52.486;13.424;2023-12-20T08:10:00;20.03;;;1.90;;
8675;SDS011;4375;52.486;13.424;2023-12-20T08:12:26;24.93;;;2.10;;
8675;SDS011;4375;52.486;13.424;2023-12-20T08:14:52;18.37;;;2.40;;
8675;SDS011;4375;52.486;13.424;2023-12-20T08:17:19;18.80;;;2.00;;
8675;SDS011;4375;52.486;13.424;2023-12-20T08:19:44;17.37;;;2.73;;
8675;SDS011;4375;52.486;13.424;2023-12-20T08:22:10;19.40;;;2.60;;
8675;SDS011;4375;52.486;13.424;2023-12-20T08:24:36;18.67;;;2.23;;
8675;SDS011;4375;52.486;13.424;2023-12-20T08:27:03;19.63;;;2.50;;
8675;SDS011;4375;52.486;13.424;2023-12-20T08:29:29;16.90;;;2.20;;
8675;SDS011;4375;52.486;13.424;2023-12-20T08:31:55;23.03;;;2.50;;
8675;SDS011;4375;52.486;13.424;2023-12-20T08:34:21;16.90;;;2.07;;
8675;SDS011;4375;52.486;13.424;2023-12-20T08:36:47;18.43;;;2.23;;
8675;SDS011;4375;52.486;13.424;2023-12-20T08:39:13;20.13;;;2.73;;
8675;SDS011;4375;52.486;13.424;2023-12-20T08:41:38;19.57;;;2.43;;
8675;SDS011;4375;52.486;13.424;2023-12-20T08:44:04;17.47;;;2.40;;
8675;SDS011;4375;52.486;13.424;2023-12-20T08:46:29;17.30;;;2.60;;
8675;SDS011;4375;52.486;13.424;2023-12-20T08:48:55;21.90;;;2.30;;
8675;SDS011;4375;52.486;13.424;2023-12-20T08:51:21;16.53;;;2.30;;
8675;SDS011;4375;52.486;13.424;2023-12-20T08:53:48;18.00;;;2.87;;
8675;SDS011;4375;52.486;13.424;2023-12-20T08:56:14;21.63;;;2.70;;
8675;SDS011;4375;52.486;13.424;2023-12-20T08:58:40;22.20;;;3.10;;
8675;SDS011;4375;52.486;13.424;2023-12-20T09:01:06;17.80;;;2.37;;
8675;SDS011;4375;52.486;13.424;2023-12-20T09:03:32;19.50;;;2.10;;
8675;SDS011;4375;52.486;13.424;2023-12-20T09:05:58;22.03;;;2.90;;
8675;SDS011;4375;52.486;13.424;2023-12-20T09:08:24;17.23;;;2.33;;
8675;SDS011;4375;52.486;13.424;2023-12-20T09:10:49;17.97;;;2.50;;
8675;SDS011;4375;52.486;13.424;2023-12-20T09:13:15;17.73;;;2.70;;
8675;SDS011;4375;52.486;13.424;2023-12-20T09:15:41;19.70;;;3.00;;
8675;SDS011;4375;52.486;13.424;2023-12-20T09:18:07;17.13;;;2.37;;
8675;SDS011;4375;52.486;13.424;2023-12-20T09:20:33;17.70;;;2.13;;
8675;SDS011;4375;52.486;13.424;2023-12-20T09:22:59;21.97;;;2.27;;
8675;SDS011;4375;52.486;13.424;2023-12-20T09:25:25;19.80;;;2.60;;
8675;SDS011;4375;52.486;13.424;2023-12-20T09:27:54;16.97;;;2.47;;
8675;SDS011;4375;52.486;13.424;2023-12-20T09:30:20;16.07;;;2.00;;
8675;SDS011;4375;52.486;13.424;2023-12-20T09:32:46;18.33;;;2.40;;
8675;SDS011;4375;52.486;13.424;2023-12-20T09:35:11;20.07;;;2.13;;
8675;SDS011;4375;52.486;13.424;2023-12-20T09:37:37;21.63;;;2.20;;
8675;SDS011;4375;52.486;13.424;2023-12-20T09:40:03;21.30;;;3.83;;
8675;SDS011;4375;52.486;13.424;2023-12-20T09:42:37;19.97;;;2.83;;
8675;SDS011;4375;52.486;13.424;2023-12-20T09:45:15;22.53;;;2.47;;
8675;SDS011;4375;52.486;13.424;2023-12-20T09:47:44;17.40;;;2.20;;
8675;SDS011;4375;52.486;13.424;2023-12-20T09:50:10;21.40;;;2.33;;
8675;SDS011;4375;52.486;13.424;2023-12-20T09:52:37;19.23;;;2.60;;
8675;SDS011;4375;52.486;13.424;2023-12-20T09:55:04;18.50;;;2.20;;
8675;SDS011;4375;52.486;13.424;2023-12-20T09:57:31;18.57;;;2.20;;
8675;SDS011;4375;52.486;13.424;2023-12-20T09:59:57;17.43;;;2.27;;
8675;SDS011;4375;52.486;13.424;2023-12-20T10:02:24;19.40;;;3.03;;
8675;SDS011;4375;52.486;13.424;2023-12-20T10:04:52;23.33;;;3.20;;
8675;SDS011;4375;52.486;13.424;2023-12-20T10:07:19;19.27;;;3.07;;
8675;SDS011;4375;52.486;13.424;2023-12-20T10:09:46;19.57;;;2.90;;
8675;SDS011;4375;52.486;13.424;2023-12-20T10:12:12;21.70;;;2.67;;
8675;SDS011;4375;52.486;13.424;2023-12-20T10:14:38;20.90;;;2.73;;
8675;SDS011;4375;52.486;13.424;2023-12-20T10:17:05;16.17;;;2.20;;
8675;SDS011;4375;52.486;13.424;2023-12-20T10:19:31;20.50;;;1.90;;
8675;SDS011;4375;52.486;13.424;2023-12-20T10:21:57;25.30;;;2.27;;
8675;SDS011;4375;52.486;13.424;2023-12-20T10:24:29;20.47;;;3.23;;
8675;SDS011;4375;52.486;13.424;2023-12-20T10:27:03;16.50;;;2.20;;
8675;SDS011;4375;52.486;13.424;2023-12-20T10:29:34;22.10;;;3.13;;
8675;SDS011;4375;52.486;13.424;2023-12-20T10:32:05;16.77;;;2.40;;
8675;SDS011;4375;52.486;13.424;2023-12-20T10:34:49;26.77;;;2.63;;
8675;SDS011;4375;52.486;13.424;2023-12-20T10:37:16;18.57;;;2.87;;
8675;SDS011;4375;52.486;13.424;2023-12-20T10:39:42;21.37;;;2.00;;
8675;SDS011;4375;52.486;13.424;2023-12-20T10:42:09;21.80;;;2.50;;
8675;SDS011;4375;52.486;13.424;2023-12-20T10:44:37;24.20;;;4.53;;
8675;SDS011;4375;52.486;13.424;2023-12-20T10:47:03;18.27;;;2.63;;
8675;SDS011;4375;52.486;13.424;2023-12-20T10:49:29;29.20;;;3.30;;
8675;SDS011;4375;52.486;13.424;2023-12-20T10:51:56;23.43;;;3.20;;
8675;SDS011;4375;52.486;13.424;2023-12-20T10:54:27;17.07;;;2.53;;
8675;SDS011;4375;52.486;13.424;2023-12-20T10:56:53;20.57;;;3.13;;
8675;SDS011;4375;52.486;13.424;2023-12-20T10:59:19;18.53;;;2.40;;
8675;SDS011;4375;52.486;13.424;2023-12-20T11:01:47;15.23;;;2.73;;
8675;SDS011;4375;52.486;13.424;2023-12-20T11:04:15;18.37;;;2.50;;
8675;SDS011;4375;52.486;13.424;2023-12-20T11:09:21;25.27;;;3.17;;
8675;SDS011;4375;52.486;13.424;2023-12-20T11:17:15;20.30;;;2.87;;
8675;SDS011;4375;52.486;13.424;2023-12-20T11:22:26;20.83;;;3.77;;
8675;SDS011;4375;52.486;13.424;2023-12-20T11:24:58;20.93;;;2.83;;
8675;SDS011;4375;52.486;13.424;2023-12-20T11:27:31;17.07;;;2.70;;
8675;SDS011;4375;52.486;13.424;2023-12-20T11:29:58;19.00;;;2.83;;
8675;SDS011;4375;52.486;13.424;2023-12-20T11:34:53;21.83;;;3.63;;
8675;SDS011;4375;52.486;13.424;2023-12-20T11:37:31;24.73;;;3.00;;
8675;SDS011;4375;52.486;13.424;2023-12-20T11:40:04;21.80;;;2.50;;
8675;SDS011;4375;52.486;13.424;2023-12-20T11:42:38;20.00;;;2.40;;
8675;SDS011;4375;52.486;13.424;2023-12-20T11:45:05;23.03;;;3.30;;
8675;SDS011;4375;52.486;13.424;2023-12-20T11:47:34;19.40;;;2.73;;
8675;SDS011;4375;52.486;13.424;2023-12-20T11:50:00;21.37;;;2.30;;
8675;SDS011;4375;52.486;13.424;2023-12-20T11:52:28;18.70;;;2.90;;
8675;SDS011;4375;52.486;13.424;2023-12-20T11:57:54;22.67;;;3.03;;
8675;SDS011;4375;52.486;13.424;2023-12-20T12:00:21;17.80;;;2.93;;
8675;SDS011;4375;52.486;13.424;2023-12-20T12:02:56;18.77;;;2.60;;
8675;SDS011;4375;52.486;13.424;2023-12-20T12:05:23;16.77;;;2.50;;
8675;SDS011;4375;52.486;13.424;2023-12-20T12:07:49;17.63;;;2.77;;
8675;SDS011;4375;52.486;13.424;2023-12-20T12:10:14;24.40;;;3.80;;
8675;SDS011;4375;52.486;13.424;2023-12-20T12:12:40;22.83;;;2.70;;
8675;SDS011;4375;52.486;13.424;2023-12-20T12:15:06;19.40;;;2.53;;
8675;SDS011;4375;52.486;13.424;2023-12-20T12:17:33;16.53;;;2.60;;
8675;SDS011;4375;52.486;13.424;2023-12-20T12:20:04;17.20;;;2.27;;
8675;SDS011;4375;52.486;13.424;2023-12-20T12:22:34;19.53;;;2.23;;
8675;SDS011;4375;52.486;13.424;2023-12-20T12:25:11;16.90;;;2.40;;
8675;SDS011;4375;52.486;13.424;2023-12-20T12:27:41;17.83;;;2.57;;
8675;SDS011;4375;52.486;13.424;2023-12-20T12:30:07;25.63;;;3.07;;
8675;SDS011;4375;52.486;13.424;2023-12-20T12:32:34;19.37;;;2.80;;
8675;SDS011;4375;52.486;13.424;2023-12-20T12:35:02;16.80;;;2.50;;
8675;SDS011;4375;52.486;13.424;2023-12-20T12:37:34;22.27;;;4.60;;
8675;SDS011;4375;52.486;13.424;2023-12-20T12:40:04;21.10;;;3.67;;
8675;SDS011;4375;52.486;13.424;2023-12-20T12:42:30;21.00;;;2.53;;
8675;SDS011;4375;52.486;13.424;2023-12-20T12:44:56;20.20;;;2.80;;
8675;SDS011;4375;52.486;13.424;2023-12-20T12:47:21;17.90;;;2.77;;
8675;SDS011;4375;52.486;13.424;2023-12-20T12:49:47;17.73;;;2.30;;
8675;SDS011;4375;52.486;13.424;2023-12-20T12:52:16;25.63;;;2.83;;
8675;SDS011;4375;52.486;13.424;2023-12-20T12:54:42;22.77;;;3.30;;
8675;SDS011;4375;52.486;13.424;2023-12-20T12:57:09;15.73;;;2.80;;
8675;SDS011;4375;52.486;13.424;2023-12-20T12:59:35;18.47;;;2.90;;
8675;SDS011;4375;52.486;13.424;2023-12-20T13:02:01;20.80;;;2.60;;
8675;SDS011;4375;52.486;13.424;2023-12-20T13:04:27;17.30;;;2.40;;
8675;SDS011;4375;52.486;13.424;2023-12-20T13:06:52;18.73;;;2.40;;
8675;SDS011;4375;52.486;13.424;2023-12-20T13:09:18;19.50;;;3.50;;
8675;SDS011;4375;52.486;13.424;2023-12-20T13:11:44;18.90;;;3.80;;
8675;SDS011;4375;52.486;13.424;2023-12-20T13:14:10;19.80;;;3.03;;
8675;SDS011;4375;52.486;13.424;2023-12-20T13:16:40;17.80;;;3.10;;
8675;SDS011;4375;52.486;13.424;2023-12-20T13:19:06;19.60;;;4.63;;
8675;SDS011;4375;52.486;13.424;2023-12-20T13:21:32;20.20;;;2.90;;
8675;SDS011;4375;52.486;13.424;2023-12-20T13:23:57;18.43;;;2.60;;
8675;SDS011;4375;52.486;13.424;2023-12-20T13:26:23;19.43;;;2.93;;
8675;SDS011;4375;52.486;13.424;2023-12-20T13:28:49;22.50;;;3.60;;
8675;SDS011;4375;52.486;13.424;2023-12-20T13:31:14;20.70;;;3.47;;
8675;SDS011;4375;52.486;13.424;2023-12-20T13:33:40;15.60;;;3.10;;
8675;SDS011;4375;52.486;13.424;2023-12-20T13:36:05;15.10;;;2.53;;
8675;SDS011;4375;52.486;13.424;2023-12-20T13:38:31;16.70;;;2.43;;
8675;SDS011;4375;52.486;13.424;2023-12-20T13:40:57;18.70;;;2.20;;
8675;SDS011;4375;52.486;13.424;2023-12-20T13:43:23;14.57;;;2.23;;
8675;SDS011;4375;52.486;13.424;2023-12-20T13:45:49;16.30;;;2.00;;
8675;SDS011;4375;52.486;13.424;2023-12-20T13:48:16;14.37;;;1.57;;
8675;SDS011;4375;52.486;13.424;2023-12-20T13:50:41;16.83;;;1.43;;
8675;SDS011;4375;52.486;13.424;2023-12-20T13:53:07;17.37;;;1.20;;
8675;SDS011;4375;52.486;13.424;2023-12-20T13:55:33;13.40;;;1.20;;
8675;SDS011;4375;52.486;13.424;2023-12-20T13:57:58;13.07;;;1.40;;
8675;SDS011;4375;52.486;13.424;2023-12-20T14:00:24;13.80;;;1.60;;
8675;SDS011;4375;52.486;13.424;2023-12-20T14:02:50;14.63;;;1.90;;
8675;SDS011;4375;52.486;13.424;2023-12-20T14:05:16;13.60;;;1.73;;
8675;SDS011;4375;52.486;13.424;2023-12-20T14:07:45;16.00;;;1.90;;
8675;SDS011;4375;52.486;13.424;2023-12-20T14:10:11;14.13;;;1.93;;
8675;SDS011;4375;52.486;13.424;2023-12-20T14:12:40;17.57;;;1.90;;
8675;SDS011;4375;52.486;13.424;2023-12-20T14:15:06;15.73;;;1.70;;
8675;SDS011;4375;52.486;13.424;2023-12-20T14:17:39;13.70;;;1.40;;
8675;SDS011;4375;52.486;13.424;2023-12-20T14:20:06;15.63;;;1.43;;
8675;SDS011;4375;52.486;13.424;2023-12-20T14:22:33;14.47;;;1.40;;
8675;SDS011;4375;52.486;13.424;2023-12-20T14:24:59;14.17;;;1.10;;
8675;SDS011;4375;52.486;13.424;2023-12-20T14:27:24;14.60;;;1.30;;
8675;SDS011;4375;52.486;13.424;2023-12-20T14:29:52;14.57;;;1.13;;
8675;SDS011;4375;52.486;13.424;2023-12-20T14:32:18;13.37;;;1.10;;
8675;SDS011;4375;52.486;13.424;2023-12-20T14:34:44;13.93;;;1.30;;
8675;SDS011;4375;52.486;13.424;2023-12-20T14:37:10;14.37;;;1.10;;
8675;SDS011;4375;52.486;13.424;2023-12-20T14:39:36;14.43;;;1.20;;
8675;SDS011;4375;52.486;13.424;2023-12-20T14:42:06;12.83;;;1.03;;
8675;SDS011;4375;52.486;13.424;2023-12-20T14:44:36;13.67;;;1.10;;
8675;SDS011;4375;52.486;13.424;2023-12-20T14:47:01;14.97;;;1.20;;
8675;SDS011;4375;52.486;13.424;2023-12-20T14:49:28;13.23;;;1.17;;
8675;SDS011;4375;52.486;13.424;2023-12-20T14:51:53;16.93;;;1.30;;
8675;SDS011;4375;52.486;13.424;2023-12-20T14:54:19;16.00;;;1.60;;
8675;SDS011;4375;52.486;13.424;2023-12-20T14:56:46;14.83;;;1.60;;
8675;SDS011;4375;52.486;13.424;2023-12-20T14:59:12;14.13;;;1.40;;